sensor_id;sensor_type;location;lat;lon;timestamp;temperature;humidity
20246;DHT22;10281;54.406;18.556;2022-07-17T00:02:06;11.90;99.90
20246;DHT22;10281;54.406;18.556;2022-07-17T00:04:33;11.90;99.90
20246;DHT22;10281;54.406;18.556;2022-07-17T00:06:59;11.90;99.90
20246;DHT22;10281;54.406;18.556;2022-07-17T00:09:26;11.90;99.90
20246;DHT22;10281;54.406;18.556;2022-07-17T00:11:53;11.90;99.90
20246;DHT22;10281;54.406;18.556;2022-07-17T00:14:19;11.90;99.90
20246;DHT22;10281;54.406;18.556;2022-07-17T00:16:46;12.00;99.90
20246;DHT22;10281;54.406;18.556;2022-07-17T00:19:13;12.00;99.90
20246;DHT22;10281;54.406;18.556;2022-07-17T00:21:39;12.00;99.90
20246;DHT22;10281;54.406;18.556;2022-07-17T00:24:06;12.10;99.90
20246;DHT22;10281;54.406;18.556;2022-07-17T00:26:34;12.00;99.90
20246;DHT22;10281;54.406;18.556;2022-07-17T00:29:03;12.00;99.90
20246;DHT22;10281;54.406;18.556;2022-07-17T00:31:30;12.00;99.90
20246;DHT22;10281;54.406;18.556;2022-07-17T00:33:57;12.00;99.90
20246;DHT22;10281;54.406;18.556;2022-07-17T00:36:23;12.00;99.90
20246;DHT22;10281;54.406;18.556;2022-07-17T00:38:50;12.00;99.90
20246;DHT22;10281;54.406;18.556;2022-07-17T00:41:17;12.00;99.90
20246;DHT22;10281;54.406;18.556;2022-07-17T00:43:43;12.00;99.90
20246;DHT22;10281;54.406;18.556;2022-07-17T00:46:11;11.90;99.90
20246;DHT22;10281;54.406;18.556;2022-07-17T00:48:38;11.90;99.90
20246;DHT22;10281;54.406;18.556;2022-07-17T00:51:05;12.00;99.90
20246;DHT22;10281;54.406;18.556;2022-07-17T00:53:33;12.00;99.90
20246;DHT22;10281;54.406;18.556;2022-07-17T00:56:03;12.00;99.90
20246;DHT22;10281;54.406;18.556;2022-07-17T00:58:32;12.00;99.90
20246;DHT22;10281;54.406;18.556;2022-07-17T01:00:59;12.00;99.90
20246;DHT22;10281;54.406;18.556;2022-07-17T01:03:26;12.00;99.90
20246;DHT22;10281;54.406;18.556;2022-07-17T01:05:52;12.00;99.90
20246;DHT22;10281;54.406;18.556;2022-07-17T01:08:19;12.00;99.90
20246;DHT22;10281;54.406;18.556;2022-07-17T01:10:46;12.00;99.90
20246;DHT22;10281;54.406;18.556;2022-07-17T01:13:13;12.10;99.90
20246;DHT22;10281;54.406;18.556;2022-07-17T01:15:41;12.10;99.90
20246;DHT22;10281;54.406;18.556;2022-07-17T01:18:10;12.10;99.90
20246;DHT22;10281;54.406;18.556;2022-07-17T01:20:40;12.20;99.90
20246;DHT22;10281;54.406;18.556;2022-07-17T01:23:07;12.30;99.90
20246;DHT22;10281;54.406;18.556;2022-07-17T01:25:35;12.30;99.90
20246;DHT22;10281;54.406;18.556;2022-07-17T01:28:03;12.30;99.90
20246;DHT22;10281;54.406;18.556;2022-07-17T01:30:31;12.40;99.90
20246;DHT22;10281;54.406;18.556;2022-07-17T01:32:58;12.40;99.90
20246;DHT22;10281;54.406;18.556;2022-07-17T01:35:25;12.50;99.90
20246;DHT22;10281;54.406;18.556;2022-07-17T01:37:51;12.50;99.90
20246;DHT22;10281;54.406;18.556;2022-07-17T01:40:18;12.50;99.90
20246;DHT22;10281;54.406;18.556;2022-07-17T01:42:48;12.50;99.90
20246;DHT22;10281;54.406;18.556;2022-07-17T01:45:18;12.50;99.90
20246;DHT22;10281;54.406;18.556;2022-07-17T01:47:46;12.60;99.90
20246;DHT22;10281;54.406;18.556;2022-07-17T01:50:13;12.60;99.90
20246;DHT22;10281;54.406;18.556;2022-07-17T01:52:42;12.60;99.90
20246;DHT22;10281;54.406;18.556;2022-07-17T01:55:11;12.60;99.90
20246;DHT22;10281;54.406;18.556;2022-07-17T01:57:39;12.70;99.90
20246;DHT22;10281;54.406;18.556;2022-07-17T02:00:08;12.70;99.90
20246;DHT22;10281;54.406;18.556;2022-07-17T02:02:35;12.70;99.90
20246;DHT22;10281;54.406;18.556;2022-07-17T02:05:03;12.60;99.90
20246;DHT22;10281;54.406;18.556;2022-07-17T02:07:29;12.60;99.90
20246;DHT22;10281;54.406;18.556;2022-07-17T02:09:58;12.60;99.90
20246;DHT22;10281;54.406;18.556;2022-07-17T02:12:24;12.60;99.90
20246;DHT22;10281;54.406;18.556;2022-07-17T02:14:51;12.60;99.90
20246;DHT22;10281;54.406;18.556;2022-07-17T02:17:18;12.50;99.90
20246;DHT22;10281;54.406;18.556;2022-07-17T02:19:44;12.50;99.90
20246;DHT22;10281;54.406;18.556;2022-07-17T02:22:11;12.50;99.90
20246;DHT22;10281;54.406;18.556;2022-07-17T02:24:38;12.40;99.90
20246;DHT22;10281;54.406;18.556;2022-07-17T02:27:04;12.50;99.90
20246;DHT22;10281;54.406;18.556;2022-07-17T02:29:31;12.40;99.90
20246;DHT22;10281;54.406;18.556;2022-07-17T02:31:57;12.40;99.90
20246;DHT22;10281;54.406;18.556;2022-07-17T02:34:24;12.40;99.90
20246;DHT22;10281;54.406;18.556;2022-07-17T02:36:51;12.40;99.90
20246;DHT22;10281;54.406;18.556;2022-07-17T02:39:17;12.30;99.90
20246;DHT22;10281;54.406;18.556;2022-07-17T02:41:44;12.30;99.90
20246;DHT22;10281;54.406;18.556;2022-07-17T02:44:10;12.30;99.90
20246;DHT22;10281;54.406;18.556;2022-07-17T02:46:37;12.30;99.90
20246;DHT22;10281;54.406;18.556;2022-07-17T02:49:04;12.30;99.90
20246;DHT22;10281;54.406;18.556;2022-07-17T02:51:30;12.30;99.90
20246;DHT22;10281;54.406;18.556;2022-07-17T02:53:57;12.30;99.90
20246;DHT22;10281;54.406;18.556;2022-07-17T02:56:24;12.30;99.90
20246;DHT22;10281;54.406;18.556;2022-07-17T02:58:50;12.30;99.90
20246;DHT22;10281;54.406;18.556;2022-07-17T03:01:17;12.30;99.90
20246;DHT22;10281;54.406;18.556;2022-07-17T03:03:43;12.30;99.90
20246;DHT22;10281;54.406;18.556;2022-07-17T03:06:10;12.30;99.90
20246;DHT22;10281;54.406;18.556;2022-07-17T03:08:37;12.30;99.90
20246;DHT22;10281;54.406;18.556;2022-07-17T03:11:03;12.30;99.90
20246;DHT22;10281;54.406;18.556;2022-07-17T03:13:30;12.30;99.90
20246;DHT22;10281;54.406;18.556;2022-07-17T03:15:57;12.40;99.90
20246;DHT22;10281;54.406;18.556;2022-07-17T03:18:23;12.40;99.90
20246;DHT22;10281;54.406;18.556;2022-07-17T03:20:51;12.40;99.90
20246;DHT22;10281;54.406;18.556;2022-07-17T03:23:17;12.40;99.90
20246;DHT22;10281;54.406;18.556;2022-07-17T03:25:44;12.50;99.90
20246;DHT22;10281;54.406;18.556;2022-07-17T03:28:11;12.50;99.90
20246;DHT22;10281;54.406;18.556;2022-07-17T03:30:37;12.50;99.90
20246;DHT22;10281;54.406;18.556;2022-07-17T03:33:04;12.50;99.90
20246;DHT22;10281;54.406;18.556;2022-07-17T03:35:31;12.50;99.90
20246;DHT22;10281;54.406;18.556;2022-07-17T03:37:57;12.60;99.90
20246;DHT22;10281;54.406;18.556;2022-07-17T03:40:24;12.60;99.90
20246;DHT22;10281;54.406;18.556;2022-07-17T03:42:50;12.70;99.90
20246;DHT22;10281;54.406;18.556;2022-07-17T03:45:17;12.70;99.90
20246;DHT22;10281;54.406;18.556;2022-07-17T03:47:44;12.70;99.90
20246;DHT22;10281;54.406;18.556;2022-07-17T03:50:10;12.80;99.90
20246;DHT22;10281;54.406;18.556;2022-07-17T03:52:37;12.80;99.90
20246;DHT22;10281;54.406;18.556;2022-07-17T03:55:05;12.80;99.90
20246;DHT22;10281;54.406;18.556;2022-07-17T03:57:31;12.90;99.90
20246;DHT22;10281;54.406;18.556;2022-07-17T03:59:58;12.90;99.90
20246;DHT22;10281;54.406;18.556;2022-07-17T04:02:24;13.00;99.90
20246;DHT22;10281;54.406;18.556;2022-07-17T04:04:51;13.00;99.90
20246;DHT22;10281;54.406;18.556;2022-07-17T04:07:18;13.10;99.90
20246;DHT22;10281;54.406;18.556;2022-07-17T04:09:50;13.20;99.90
20246;DHT22;10281;54.406;18.556;2022-07-17T04:12:17;13.20;99.90
20246;DHT22;10281;54.406;18.556;2022-07-17T04:14:43;13.20;99.90
20246;DHT22;10281;54.406;18.556;2022-07-17T04:17:10;13.30;99.90
20246;DHT22;10281;54.406;18.556;2022-07-17T04:19:36;13.40;99.90
20246;DHT22;10281;54.406;18.556;2022-07-17T04:22:03;13.40;99.90
20246;DHT22;10281;54.406;18.556;2022-07-17T04:24:30;13.50;99.90
20246;DHT22;10281;54.406;18.556;2022-07-17T04:26:56;13.60;99.90
20246;DHT22;10281;54.406;18.556;2022-07-17T04:29:23;13.70;99.90
20246;DHT22;10281;54.406;18.556;2022-07-17T04:31:50;13.70;99.90
20246;DHT22;10281;54.406;18.556;2022-07-17T04:34:17;13.80;99.90
20246;DHT22;10281;54.406;18.556;2022-07-17T04:36:44;13.90;99.90
20246;DHT22;10281;54.406;18.556;2022-07-17T04:39:11;13.90;99.90
20246;DHT22;10281;54.406;18.556;2022-07-17T04:41:38;14.00;99.90
20246;DHT22;10281;54.406;18.556;2022-07-17T04:44:04;14.00;99.90
20246;DHT22;10281;54.406;18.556;2022-07-17T04:46:31;14.10;99.90
20246;DHT22;10281;54.406;18.556;2022-07-17T04:48:57;14.20;99.90
20246;DHT22;10281;54.406;18.556;2022-07-17T04:51:24;14.30;99.90
20246;DHT22;10281;54.406;18.556;2022-07-17T04:53:51;14.40;99.90
20246;DHT22;10281;54.406;18.556;2022-07-17T04:56:18;14.50;99.90
20246;DHT22;10281;54.406;18.556;2022-07-17T04:58:44;14.60;99.90
20246;DHT22;10281;54.406;18.556;2022-07-17T05:01:11;14.70;99.90
20246;DHT22;10281;54.406;18.556;2022-07-17T05:03:38;14.70;99.90
20246;DHT22;10281;54.406;18.556;2022-07-17T05:06:04;14.90;99.90
20246;DHT22;10281;54.406;18.556;2022-07-17T05:08:34;14.90;99.90
20246;DHT22;10281;54.406;18.556;2022-07-17T05:11:00;15.00;99.90
20246;DHT22;10281;54.406;18.556;2022-07-17T05:13:27;15.10;99.90
20246;DHT22;10281;54.406;18.556;2022-07-17T05:15:54;15.20;99.90
20246;DHT22;10281;54.406;18.556;2022-07-17T05:18:20;15.30;99.90
20246;DHT22;10281;54.406;18.556;2022-07-17T05:20:47;15.40;99.90
20246;DHT22;10281;54.406;18.556;2022-07-17T05:23:14;15.50;99.90
20246;DHT22;10281;54.406;18.556;2022-07-17T05:25:40;15.60;99.90
20246;DHT22;10281;54.406;18.556;2022-07-17T05:28:07;15.70;99.90
20246;DHT22;10281;54.406;18.556;2022-07-17T05:30:33;15.80;99.90
20246;DHT22;10281;54.406;18.556;2022-07-17T05:33:00;15.90;99.90
20246;DHT22;10281;54.406;18.556;2022-07-17T05:35:27;16.00;99.90
20246;DHT22;10281;54.406;18.556;2022-07-17T05:37:54;16.10;99.90
20246;DHT22;10281;54.406;18.556;2022-07-17T05:40:20;16.20;99.90
20246;DHT22;10281;54.406;18.556;2022-07-17T05:42:47;16.30;99.90
20246;DHT22;10281;54.406;18.556;2022-07-17T05:45:13;16.40;99.90
20246;DHT22;10281;54.406;18.556;2022-07-17T05:47:40;16.40;99.90
20246;DHT22;10281;54.406;18.556;2022-07-17T05:50:07;16.50;99.90
20246;DHT22;10281;54.406;18.556;2022-07-17T05:52:33;16.60;99.90
20246;DHT22;10281;54.406;18.556;2022-07-17T05:55:00;16.70;99.90
20246;DHT22;10281;54.406;18.556;2022-07-17T05:57:27;16.70;99.90
20246;DHT22;10281;54.406;18.556;2022-07-17T05:59:54;16.80;99.90
20246;DHT22;10281;54.406;18.556;2022-07-17T06:02:20;16.90;99.90
20246;DHT22;10281;54.406;18.556;2022-07-17T06:04:47;17.00;99.90
20246;DHT22;10281;54.406;18.556;2022-07-17T06:07:14;17.10;99.90
20246;DHT22;10281;54.406;18.556;2022-07-17T06:09:40;17.10;99.90
20246;DHT22;10281;54.406;18.556;2022-07-17T06:12:07;17.20;99.90
20246;DHT22;10281;54.406;18.556;2022-07-17T06:14:33;17.20;99.90
20246;DHT22;10281;54.406;18.556;2022-07-17T06:17:00;17.20;99.90
20246;DHT22;10281;54.406;18.556;2022-07-17T06:19:27;17.40;99.90
20246;DHT22;10281;54.406;18.556;2022-07-17T06:21:53;17.50;99.90
20246;DHT22;10281;54.406;18.556;2022-07-17T06:24:20;17.60;99.90
20246;DHT22;10281;54.406;18.556;2022-07-17T06:26:46;17.60;99.90
20246;DHT22;10281;54.406;18.556;2022-07-17T06:29:13;17.60;99.90
20246;DHT22;10281;54.406;18.556;2022-07-17T06:31:40;17.70;99.90
20246;DHT22;10281;54.406;18.556;2022-07-17T06:34:07;17.70;99.90
20246;DHT22;10281;54.406;18.556;2022-07-17T06:36:33;17.60;99.90
20246;DHT22;10281;54.406;18.556;2022-07-17T06:39:00;17.70;99.90
20246;DHT22;10281;54.406;18.556;2022-07-17T06:41:26;17.70;99.90
20246;DHT22;10281;54.406;18.556;2022-07-17T06:43:53;17.70;99.90
20246;DHT22;10281;54.406;18.556;2022-07-17T06:46:20;17.70;99.90
20246;DHT22;10281;54.406;18.556;2022-07-17T06:48:46;17.70;99.90
20246;DHT22;10281;54.406;18.556;2022-07-17T06:51:15;17.70;99.90
20246;DHT22;10281;54.406;18.556;2022-07-17T06:53:42;17.70;99.90
20246;DHT22;10281;54.406;18.556;2022-07-17T06:56:08;17.70;99.90
20246;DHT22;10281;54.406;18.556;2022-07-17T06:58:35;17.70;99.90
20246;DHT22;10281;54.406;18.556;2022-07-17T07:01:02;17.70;99.90
20246;DHT22;10281;54.406;18.556;2022-07-17T07:03:29;17.70;99.90
20246;DHT22;10281;54.406;18.556;2022-07-17T07:05:56;17.70;99.90
20246;DHT22;10281;54.406;18.556;2022-07-17T07:08:22;17.80;99.90
20246;DHT22;10281;54.406;18.556;2022-07-17T07:10:49;17.80;99.90
20246;DHT22;10281;54.406;18.556;2022-07-17T07:13:16;17.90;99.90
20246;DHT22;10281;54.406;18.556;2022-07-17T07:15:42;18.00;99.90
20246;DHT22;10281;54.406;18.556;2022-07-17T07:18:09;18.00;99.90
20246;DHT22;10281;54.406;18.556;2022-07-17T07:20:36;18.00;99.90
20246;DHT22;10281;54.406;18.556;2022-07-17T07:23:02;18.10;99.90
20246;DHT22;10281;54.406;18.556;2022-07-17T07:25:29;18.10;99.90
20246;DHT22;10281;54.406;18.556;2022-07-17T07:27:56;18.00;99.90
20246;DHT22;10281;54.406;18.556;2022-07-17T07:30:22;18.10;99.90
20246;DHT22;10281;54.406;18.556;2022-07-17T07:32:49;18.10;99.90
20246;DHT22;10281;54.406;18.556;2022-07-17T07:35:16;18.30;99.90
20246;DHT22;10281;54.406;18.556;2022-07-17T07:37:42;18.30;99.90
20246;DHT22;10281;54.406;18.556;2022-07-17T07:40:10;18.20;99.90
20246;DHT22;10281;54.406;18.556;2022-07-17T07:42:37;18.40;99.90
20246;DHT22;10281;54.406;18.556;2022-07-17T07:45:04;18.40;99.90
20246;DHT22;10281;54.406;18.556;2022-07-17T07:47:31;18.50;99.90
20246;DHT22;10281;54.406;18.556;2022-07-17T07:49:58;18.50;99.90
20246;DHT22;10281;54.406;18.556;2022-07-17T07:52:25;18.50;99.90
20246;DHT22;10281;54.406;18.556;2022-07-17T07:54:51;18.60;99.90
20246;DHT22;10281;54.406;18.556;2022-07-17T07:57:18;18.70;99.90
20246;DHT22;10281;54.406;18.556;2022-07-17T07:59:45;18.70;99.90
20246;DHT22;10281;54.406;18.556;2022-07-17T08:02:12;18.80;99.90
20246;DHT22;10281;54.406;18.556;2022-07-17T08:04:38;18.90;99.90
20246;DHT22;10281;54.406;18.556;2022-07-17T08:07:05;18.80;99.90
20246;DHT22;10281;54.406;18.556;2022-07-17T08:09:32;18.80;99.90
20246;DHT22;10281;54.406;18.556;2022-07-17T08:11:58;18.80;99.90
20246;DHT22;10281;54.406;18.556;2022-07-17T08:14:26;18.90;99.90
20246;DHT22;10281;54.406;18.556;2022-07-17T08:16:52;19.00;99.90
20246;DHT22;10281;54.406;18.556;2022-07-17T08:19:20;19.10;99.90
20246;DHT22;10281;54.406;18.556;2022-07-17T08:21:47;19.30;99.90
20246;DHT22;10281;54.406;18.556;2022-07-17T08:24:13;19.50;99.90
20246;DHT22;10281;54.406;18.556;2022-07-17T08:26:42;19.60;99.90
20246;DHT22;10281;54.406;18.556;2022-07-17T08:29:09;19.60;99.90
20246;DHT22;10281;54.406;18.556;2022-07-17T08:31:36;19.40;99.90
20246;DHT22;10281;54.406;18.556;2022-07-17T08:34:02;19.30;99.90
20246;DHT22;10281;54.406;18.556;2022-07-17T08:36:30;19.10;99.90
20246;DHT22;10281;54.406;18.556;2022-07-17T08:38:56;19.00;99.90
20246;DHT22;10281;54.406;18.556;2022-07-17T08:41:24;18.90;99.90
20246;DHT22;10281;54.406;18.556;2022-07-17T08:43:50;18.90;99.90
20246;DHT22;10281;54.406;18.556;2022-07-17T08:46:23;19.10;99.90
20246;DHT22;10281;54.406;18.556;2022-07-17T08:48:56;19.20;99.90
20246;DHT22;10281;54.406;18.556;2022-07-17T08:51:22;19.30;99.90
20246;DHT22;10281;54.406;18.556;2022-07-17T08:53:50;19.40;99.90
20246;DHT22;10281;54.406;18.556;2022-07-17T08:56:18;19.50;99.90
20246;DHT22;10281;54.406;18.556;2022-07-17T08:58:46;19.70;99.90
20246;DHT22;10281;54.406;18.556;2022-07-17T09:01:14;19.70;99.90
20246;DHT22;10281;54.406;18.556;2022-07-17T09:03:42;19.80;99.90
20246;DHT22;10281;54.406;18.556;2022-07-17T09:06:18;19.70;99.90
20246;DHT22;10281;54.406;18.556;2022-07-17T09:08:45;19.60;99.90
20246;DHT22;10281;54.406;18.556;2022-07-17T09:11:12;19.60;99.90
20246;DHT22;10281;54.406;18.556;2022-07-17T09:13:45;19.70;99.90
20246;DHT22;10281;54.406;18.556;2022-07-17T09:16:12;19.90;99.90
20246;DHT22;10281;54.406;18.556;2022-07-17T09:18:46;20.00;99.90
20246;DHT22;10281;54.406;18.556;2022-07-17T09:21:22;20.10;99.90
20246;DHT22;10281;54.406;18.556;2022-07-17T09:23:59;19.80;99.90
20246;DHT22;10281;54.406;18.556;2022-07-17T09:26:27;19.70;99.90
20246;DHT22;10281;54.406;18.556;2022-07-17T09:28:53;19.70;99.90
20246;DHT22;10281;54.406;18.556;2022-07-17T09:31:26;19.70;99.90
20246;DHT22;10281;54.406;18.556;2022-07-17T09:33:53;19.80;99.90
20246;DHT22;10281;54.406;18.556;2022-07-17T09:36:20;19.90;99.90
20246;DHT22;10281;54.406;18.556;2022-07-17T09:38:53;20.00;99.90
20246;DHT22;10281;54.406;18.556;2022-07-17T09:41:18;20.10;99.90
20246;DHT22;10281;54.406;18.556;2022-07-17T09:43:56;20.20;99.90
20246;DHT22;10281;54.406;18.556;2022-07-17T09:46:27;20.30;99.90
20246;DHT22;10281;54.406;18.556;2022-07-17T09:48:57;20.40;99.90
20246;DHT22;10281;54.406;18.556;2022-07-17T09:51:28;20.40;99.90
20246;DHT22;10281;54.406;18.556;2022-07-17T09:53:57;20.20;99.90
20246;DHT22;10281;54.406;18.556;2022-07-17T09:56:26;20.00;99.90
20246;DHT22;10281;54.406;18.556;2022-07-17T09:59:06;20.00;99.90
20246;DHT22;10281;54.406;18.556;2022-07-17T10:01:34;20.00;99.90
20246;DHT22;10281;54.406;18.556;2022-07-17T10:04:01;20.20;99.90
20246;DHT22;10281;54.406;18.556;2022-07-17T10:06:29;20.30;99.90
20246;DHT22;10281;54.406;18.556;2022-07-17T10:08:56;20.40;99.90
20246;DHT22;10281;54.406;18.556;2022-07-17T10:11:28;20.40;99.90
20246;DHT22;10281;54.406;18.556;2022-07-17T10:14:03;20.30;99.90
20246;DHT22;10281;54.406;18.556;2022-07-17T10:16:32;20.10;99.90
20246;DHT22;10281;54.406;18.556;2022-07-17T10:19:00;20.20;99.90
20246;DHT22;10281;54.406;18.556;2022-07-17T10:21:30;20.40;99.90
20246;DHT22;10281;54.406;18.556;2022-07-17T10:24:12;20.40;99.90
20246;DHT22;10281;54.406;18.556;2022-07-17T10:26:41;20.30;99.90
20246;DHT22;10281;54.406;18.556;2022-07-17T10:29:32;20.30;99.90
20246;DHT22;10281;54.406;18.556;2022-07-17T10:32:03;20.40;99.90
20246;DHT22;10281;54.406;18.556;2022-07-17T10:34:40;20.40;99.90
20246;DHT22;10281;54.406;18.556;2022-07-17T10:37:14;20.40;99.90
20246;DHT22;10281;54.406;18.556;2022-07-17T10:42:15;20.60;99.90
20246;DHT22;10281;54.406;18.556;2022-07-17T10:44:42;20.70;99.90
20246;DHT22;10281;54.406;18.556;2022-07-17T10:47:08;20.70;99.90
20246;DHT22;10281;54.406;18.556;2022-07-17T10:49:35;20.70;99.90
20246;DHT22;10281;54.406;18.556;2022-07-17T10:52:02;20.80;99.90
20246;DHT22;10281;54.406;18.556;2022-07-17T10:54:33;20.90;99.90
20246;DHT22;10281;54.406;18.556;2022-07-17T10:57:01;21.00;99.90
20246;DHT22;10281;54.406;18.556;2022-07-17T10:59:28;20.90;99.90
20246;DHT22;10281;54.406;18.556;2022-07-17T11:01:56;20.60;99.90
20246;DHT22;10281;54.406;18.556;2022-07-17T11:04:24;20.40;99.90
20246;DHT22;10281;54.406;18.556;2022-07-17T11:06:51;20.30;99.90
20246;DHT22;10281;54.406;18.556;2022-07-17T11:09:19;20.50;99.90
20246;DHT22;10281;54.406;18.556;2022-07-17T11:11:50;20.60;99.90
20246;DHT22;10281;54.406;18.556;2022-07-17T11:14:22;20.80;99.90
20246;DHT22;10281;54.406;18.556;2022-07-17T11:17:00;20.90;99.90
20246;DHT22;10281;54.406;18.556;2022-07-17T11:19:28;21.10;99.90
20246;DHT22;10281;54.406;18.556;2022-07-17T11:21:58;21.30;99.90
20246;DHT22;10281;54.406;18.556;2022-07-17T11:24:41;21.30;99.90
20246;DHT22;10281;54.406;18.556;2022-07-17T11:27:12;21.10;99.90
20246;DHT22;10281;54.406;18.556;2022-07-17T11:29:40;20.80;99.90
20246;DHT22;10281;54.406;18.556;2022-07-17T11:32:07;20.80;99.90
20246;DHT22;10281;54.406;18.556;2022-07-17T11:34:34;20.80;99.90
20246;DHT22;10281;54.406;18.556;2022-07-17T11:37:04;20.90;99.90
20246;DHT22;10281;54.406;18.556;2022-07-17T11:39:38;21.00;99.90
20246;DHT22;10281;54.406;18.556;2022-07-17T11:42:08;21.10;99.90
20246;DHT22;10281;54.406;18.556;2022-07-17T11:44:35;21.20;99.90
20246;DHT22;10281;54.406;18.556;2022-07-17T11:47:02;21.30;99.90
20246;DHT22;10281;54.406;18.556;2022-07-17T11:49:33;21.30;99.90
20246;DHT22;10281;54.406;18.556;2022-07-17T11:52:14;21.10;99.90
20246;DHT22;10281;54.406;18.556;2022-07-17T11:54:58;21.10;99.90
20246;DHT22;10281;54.406;18.556;2022-07-17T11:57:27;21.10;99.90
20246;DHT22;10281;54.406;18.556;2022-07-17T11:59:53;21.20;99.90
20246;DHT22;10281;54.406;18.556;2022-07-17T12:02:28;21.10;99.90
20246;DHT22;10281;54.406;18.556;2022-07-17T12:04:56;21.00;99.90
20246;DHT22;10281;54.406;18.556;2022-07-17T12:07:25;21.10;99.90
20246;DHT22;10281;54.406;18.556;2022-07-17T12:09:53;21.10;99.90
20246;DHT22;10281;54.406;18.556;2022-07-17T12:12:27;21.20;99.90
20246;DHT22;10281;54.406;18.556;2022-07-17T12:14:57;21.30;99.90
20246;DHT22;10281;54.406;18.556;2022-07-17T12:17:25;21.30;99.90
20246;DHT22;10281;54.406;18.556;2022-07-17T12:19:52;21.30;99.90
20246;DHT22;10281;54.406;18.556;2022-07-17T12:22:19;21.30;99.90
20246;DHT22;10281;54.406;18.556;2022-07-17T12:24:45;21.20;99.90
20246;DHT22;10281;54.406;18.556;2022-07-17T12:27:14;21.00;99.40
20246;DHT22;10281;54.406;18.556;2022-07-17T12:29:41;21.00;99.90
20246;DHT22;10281;54.406;18.556;2022-07-17T12:32:10;21.00;99.90
20246;DHT22;10281;54.406;18.556;2022-07-17T12:34:39;21.10;99.80
20246;DHT22;10281;54.406;18.556;2022-07-17T12:37:11;21.20;99.90
20246;DHT22;10281;54.406;18.556;2022-07-17T12:39:38;21.20;99.90
20246;DHT22;10281;54.406;18.556;2022-07-17T12:42:04;21.00;98.20
20246;DHT22;10281;54.406;18.556;2022-07-17T12:44:31;21.00;98.20
20246;DHT22;10281;54.406;18.556;2022-07-17T12:46:58;20.90;99.10
20246;DHT22;10281;54.406;18.556;2022-07-17T12:49:24;20.80;99.40
20246;DHT22;10281;54.406;18.556;2022-07-17T12:51:51;20.70;99.90
20246;DHT22;10281;54.406;18.556;2022-07-17T12:54:18;20.70;99.30
20246;DHT22;10281;54.406;18.556;2022-07-17T12:56:45;20.70;98.80
20246;DHT22;10281;54.406;18.556;2022-07-17T12:59:12;20.80;98.90
20246;DHT22;10281;54.406;18.556;2022-07-17T13:01:38;20.80;98.80
20246;DHT22;10281;54.406;18.556;2022-07-17T13:04:05;20.80;99.80
20246;DHT22;10281;54.406;18.556;2022-07-17T13:06:32;20.80;99.60
20246;DHT22;10281;54.406;18.556;2022-07-17T13:08:59;20.80;99.70
20246;DHT22;10281;54.406;18.556;2022-07-17T13:11:26;20.80;98.30
20246;DHT22;10281;54.406;18.556;2022-07-17T13:13:53;20.90;98.00
20246;DHT22;10281;54.406;18.556;2022-07-17T13:16:20;20.90;97.90
20246;DHT22;10281;54.406;18.556;2022-07-17T13:18:47;21.00;98.20
20246;DHT22;10281;54.406;18.556;2022-07-17T13:21:13;21.10;98.20
20246;DHT22;10281;54.406;18.556;2022-07-17T13:23:40;21.10;97.80
20246;DHT22;10281;54.406;18.556;2022-07-17T13:26:08;21.10;99.00
20246;DHT22;10281;54.406;18.556;2022-07-17T13:28:34;21.00;98.00
20246;DHT22;10281;54.406;18.556;2022-07-17T13:31:01;21.00;97.90
20246;DHT22;10281;54.406;18.556;2022-07-17T13:33:30;20.80;97.30
20246;DHT22;10281;54.406;18.556;2022-07-17T13:35:56;20.70;97.40
20246;DHT22;10281;54.406;18.556;2022-07-17T13:38:23;20.60;97.20
20246;DHT22;10281;54.406;18.556;2022-07-17T13:40:50;20.50;97.30
20246;DHT22;10281;54.406;18.556;2022-07-17T13:43:16;20.50;97.10
20246;DHT22;10281;54.406;18.556;2022-07-17T13:45:43;20.60;97.90
20246;DHT22;10281;54.406;18.556;2022-07-17T13:48:10;20.70;98.60
20246;DHT22;10281;54.406;18.556;2022-07-17T13:50:36;20.70;98.00
20246;DHT22;10281;54.406;18.556;2022-07-17T13:53:03;20.70;97.90
20246;DHT22;10281;54.406;18.556;2022-07-17T13:55:29;20.70;98.50
20246;DHT22;10281;54.406;18.556;2022-07-17T13:57:56;20.60;97.40
20246;DHT22;10281;54.406;18.556;2022-07-17T14:00:23;20.40;97.60
20246;DHT22;10281;54.406;18.556;2022-07-17T14:02:49;20.40;98.40
20246;DHT22;10281;54.406;18.556;2022-07-17T14:05:16;20.40;98.30
20246;DHT22;10281;54.406;18.556;2022-07-17T14:07:42;20.30;97.70
20246;DHT22;10281;54.406;18.556;2022-07-17T14:10:09;20.20;97.00
20246;DHT22;10281;54.406;18.556;2022-07-17T14:12:36;20.20;97.00
20246;DHT22;10281;54.406;18.556;2022-07-17T14:15:03;20.00;96.70
20246;DHT22;10281;54.406;18.556;2022-07-17T14:17:30;19.90;97.80
20246;DHT22;10281;54.406;18.556;2022-07-17T14:19:57;19.80;97.90
20246;DHT22;10281;54.406;18.556;2022-07-17T14:22:23;19.90;98.00
20246;DHT22;10281;54.406;18.556;2022-07-17T14:24:50;19.90;97.70
20246;DHT22;10281;54.406;18.556;2022-07-17T14:27:16;19.90;96.30
20246;DHT22;10281;54.406;18.556;2022-07-17T14:29:43;19.80;96.80
20246;DHT22;10281;54.406;18.556;2022-07-17T14:32:10;19.80;96.70
20246;DHT22;10281;54.406;18.556;2022-07-17T14:34:36;19.80;97.00
20246;DHT22;10281;54.406;18.556;2022-07-17T14:37:03;19.90;96.60
20246;DHT22;10281;54.406;18.556;2022-07-17T14:39:32;19.90;97.30
20246;DHT22;10281;54.406;18.556;2022-07-17T14:41:59;19.90;98.40
20246;DHT22;10281;54.406;18.556;2022-07-17T14:44:25;19.90;98.10
20246;DHT22;10281;54.406;18.556;2022-07-17T14:46:53;19.90;98.50
20246;DHT22;10281;54.406;18.556;2022-07-17T14:49:20;19.90;98.90
20246;DHT22;10281;54.406;18.556;2022-07-17T14:51:46;20.00;99.20
20246;DHT22;10281;54.406;18.556;2022-07-17T14:54:13;20.00;97.80
20246;DHT22;10281;54.406;18.556;2022-07-17T14:56:40;20.00;98.70
20246;DHT22;10281;54.406;18.556;2022-07-17T14:59:06;20.00;97.70
20246;DHT22;10281;54.406;18.556;2022-07-17T15:01:33;19.90;98.50
20246;DHT22;10281;54.406;18.556;2022-07-17T15:04:01;19.70;98.00
20246;DHT22;10281;54.406;18.556;2022-07-17T15:06:28;19.60;99.60
20246;DHT22;10281;54.406;18.556;2022-07-17T15:08:58;19.70;99.40
20246;DHT22;10281;54.406;18.556;2022-07-17T15:11:25;19.70;99.90
20246;DHT22;10281;54.406;18.556;2022-07-17T15:13:51;19.80;99.70
20246;DHT22;10281;54.406;18.556;2022-07-17T15:16:18;19.90;99.90
20246;DHT22;10281;54.406;18.556;2022-07-17T15:18:45;20.00;99.10
20246;DHT22;10281;54.406;18.556;2022-07-17T15:21:13;20.00;99.30